Awendaw, South Carolina
Current Conditions -  °F | °C
As of 5:55 PM on Tuesday 21 Oct 2014 (Local Time) from KLRO Reporting Station
Clear Clear  
Wind Chill: 77°   Ceiling: Unl
Heat Index: 79°   Visibility: 9mi
Dew Point: 55°   Wind: 5mph
Humidity: 47%   Direction: 280°W
Pressure: 29.87"   Gusts: NA
Location:  33.04°N, 79.61°W
Report Text: KLRO 212155Z AUTO 28004KT 9SM CLR 25/13 A2987 RMK AO2 PWINO PNO
Loading
Personal Weather Stations






























Interactive Weather Map New forecast layout! Learn more

10-Day Weather Forecast

Advertisements
Track Severe Weather on mobile